createdAt,value
2017-11-25T00:00:39.447Z,7.95
2017-11-25T00:03:07.085Z,7.95
2017-11-25T00:05:34.755Z,7.79
2017-11-25T00:08:02.350Z,7.78
2017-11-25T00:10:30.229Z,7.76
2017-11-25T00:12:57.853Z,7.63
2017-11-25T00:15:25.460Z,7.51
2017-11-25T00:17:53.064Z,7.53
2017-11-25T00:20:20.697Z,7.49
2017-11-25T00:22:48.285Z,7.48
2017-11-25T00:25:15.888Z,7.44
2017-11-25T00:27:43.505Z,7.53
2017-11-25T00:30:11.111Z,7.64
2017-11-25T00:32:38.727Z,7.68
2017-11-25T00:35:06.371Z,7.70
2017-11-25T00:37:33.953Z,7.71
2017-11-25T00:40:01.561Z,7.75
2017-11-25T00:42:29.197Z,7.82
2017-11-25T00:44:56.921Z,7.82
2017-11-25T00:47:24.576Z,7.90
2017-11-25T00:49:52.226Z,7.85
2017-11-25T00:52:19.931Z,7.89
2017-11-25T00:54:47.541Z,7.95
2017-11-25T00:57:15.430Z,7.97
2017-11-25T00:59:43.005Z,8.02
2017-11-25T01:02:10.593Z,8.04
2017-11-25T01:04:38.225Z,8.07
2017-11-25T01:07:05.833Z,8.12
2017-11-25T01:09:33.737Z,8.11
2017-11-25T01:12:01.364Z,8.10
2017-11-25T01:14:29.271Z,8.02
2017-11-25T01:16:56.862Z,8.00
2017-11-25T01:19:24.498Z,7.96
2017-11-25T01:21:52.094Z,7.99
2017-11-25T01:24:19.683Z,8.05
2017-11-25T01:26:47.343Z,8.09
2017-11-25T01:29:14.937Z,8.09
2017-11-25T01:31:42.580Z,8.14
2017-11-25T01:34:10.213Z,8.11
2017-11-25T01:36:37.805Z,8.09
2017-11-25T01:39:05.421Z,8.08
2017-11-25T01:41:33.054Z,8.05
2017-11-25T01:44:00.653Z,8.09
2017-11-25T01:46:28.590Z,8.06
2017-11-25T01:48:56.213Z,8.10
2017-11-25T01:51:23.802Z,8.09
2017-11-25T01:53:51.670Z,8.09
2017-11-25T01:56:19.645Z,8.11
2017-11-25T01:58:47.234Z,8.17
2017-11-25T02:01:14.829Z,8.12
2017-11-25T02:03:42.463Z,8.12
2017-11-25T02:06:10.045Z,8.14
2017-11-25T02:08:37.628Z,8.17
2017-11-25T02:11:05.267Z,8.20
2017-11-25T02:13:32.857Z,8.20
2017-11-25T02:16:00.435Z,8.21
2017-11-25T02:18:28.069Z,8.20
2017-11-25T02:20:55.662Z,8.22
2017-11-25T02:23:23.251Z,8.23
2017-11-25T02:25:50.886Z,8.27
2017-11-25T02:28:18.473Z,8.29
2017-11-25T02:30:46.089Z,8.29
2017-11-25T02:33:13.713Z,8.28
2017-11-25T02:35:41.318Z,8.28
2017-11-25T02:38:08.918Z,8.29
2017-11-25T02:40:36.865Z,8.31
2017-11-25T02:43:04.462Z,8.35
2017-11-25T02:45:32.064Z,8.35
2017-11-25T02:47:59.693Z,8.37
2017-11-25T02:50:27.321Z,8.36
2017-11-25T02:52:54.936Z,8.38
2017-11-25T02:55:22.572Z,8.38
2017-11-25T02:57:50.158Z,8.38
2017-11-25T03:00:17.746Z,8.40
2017-11-25T03:02:45.368Z,8.34
2017-11-25T03:05:12.985Z,8.39
2017-11-25T03:07:40.574Z,8.34
2017-11-25T03:10:08.510Z,8.34
2017-11-25T03:12:36.111Z,8.34
2017-11-25T03:15:04.179Z,8.37
2017-11-25T03:17:31.816Z,8.39
2017-11-25T03:19:59.415Z,8.47
2017-11-25T03:22:27.054Z,8.42
2017-11-25T03:24:54.695Z,8.44
2017-11-25T03:27:22.295Z,8.42
2017-11-25T03:29:49.912Z,8.37
2017-11-25T03:32:17.844Z,8.30
2017-11-25T03:34:45.443Z,8.28
2017-11-25T03:37:13.129Z,8.26
2017-11-25T03:39:41.500Z,8.27
2017-11-25T03:42:09.093Z,8.26
2017-11-25T03:44:36.693Z,8.26
2017-11-25T03:47:04.593Z,8.28
2017-11-25T03:49:32.178Z,8.29
2017-11-25T03:51:59.787Z,8.27
2017-11-25T03:54:27.472Z,8.34
2017-11-25T03:56:55.336Z,8.43
2017-11-25T03:59:22.938Z,8.40
2017-11-25T04:01:50.869Z,8.35
2017-11-25T04:04:18.457Z,8.31
2017-11-25T04:06:46.403Z,8.30
2017-11-25T04:09:14.046Z,8.33
2017-11-25T04:11:41.630Z,8.34
2017-11-25T04:14:09.498Z,8.33
2017-11-25T04:16:37.121Z,8.41
2017-11-25T04:19:04.712Z,8.43
2017-11-25T04:21:32.297Z,8.43
2017-11-25T04:23:59.934Z,8.36
2017-11-25T04:26:27.535Z,8.34
2017-11-25T04:28:55.114Z,8.38
2017-11-25T04:31:23.035Z,8.40
2017-11-25T04:33:50.901Z,8.32
2017-11-25T04:36:18.773Z,8.35
2017-11-25T04:38:46.407Z,8.30
2017-11-25T04:41:14.304Z,8.28
2017-11-25T04:43:42.167Z,8.29
2017-11-25T04:46:09.801Z,8.28
2017-11-25T04:48:37.389Z,8.24
2017-11-25T04:51:05.002Z,8.27
2017-11-25T04:53:32.629Z,8.38
2017-11-25T04:56:00.218Z,8.33
2017-11-25T04:58:27.958Z,8.36
2017-11-25T05:00:55.611Z,8.38
2017-11-25T05:03:23.473Z,8.43
2017-11-25T05:05:51.091Z,8.45
2017-11-25T05:08:18.722Z,8.40
2017-11-25T05:10:46.315Z,8.40
2017-11-25T05:13:13.939Z,8.37
2017-11-25T05:15:41.556Z,8.27
2017-11-25T05:18:09.156Z,8.25
2017-11-25T05:20:36.741Z,8.19
2017-11-25T05:23:04.366Z,8.19
2017-11-25T05:25:31.956Z,8.12
2017-11-25T05:27:59.538Z,8.14
2017-11-25T05:30:27.465Z,8.19
2017-11-25T05:32:55.071Z,8.21
2017-11-25T05:35:22.664Z,8.24
2017-11-25T05:37:50.294Z,8.23
2017-11-25T05:40:17.872Z,8.15
2017-11-25T05:42:45.464Z,8.17
2017-11-25T05:45:13.089Z,8.22
2017-11-25T05:47:40.681Z,8.24
2017-11-25T05:50:08.317Z,8.18
2017-11-25T05:52:35.950Z,8.13
2017-11-25T05:55:03.592Z,8.13
2017-11-25T05:57:31.194Z,8.15
2017-11-25T05:59:58.838Z,8.09
2017-11-25T06:02:26.780Z,8.04
2017-11-25T06:04:54.390Z,8.05
2017-11-25T06:07:22.025Z,8.00
2017-11-25T06:09:49.665Z,7.96
2017-11-25T06:12:17.253Z,8.01
2017-11-25T06:14:44.875Z,7.97
2017-11-25T06:17:12.466Z,8.04
2017-11-25T06:19:40.064Z,7.96
2017-11-25T06:22:07.701Z,8.02
2017-11-25T06:24:35.476Z,8.02
2017-11-25T06:27:03.245Z,8.05
2017-11-25T06:29:33.189Z,8.09
2017-11-25T06:32:00.776Z,7.98
2017-11-25T06:34:29.516Z,7.91
2017-11-25T06:36:57.404Z,7.95
2017-11-25T06:39:25.188Z,7.92
2017-11-25T06:41:52.786Z,7.85
2017-11-25T06:44:20.508Z,7.86
2017-11-25T06:46:48.400Z,7.85
2017-11-25T06:49:15.985Z,7.89
2017-11-25T06:51:43.849Z,7.89
2017-11-25T06:54:11.473Z,7.88
2017-11-25T06:56:39.095Z,7.88
2017-11-25T06:59:06.720Z,7.94
2017-11-25T07:01:34.578Z,7.85
2017-11-25T07:04:02.462Z,7.82
2017-11-25T07:06:30.156Z,7.87
2017-11-25T07:08:57.751Z,7.88
2017-11-25T07:11:25.359Z,7.87
2017-11-25T07:13:53.019Z,7.90
2017-11-25T07:16:20.628Z,7.89
2017-11-25T07:18:48.210Z,7.85
2017-11-25T07:21:15.837Z,7.76
2017-11-25T07:23:43.440Z,7.74
2017-11-25T07:26:11.025Z,7.79
2017-11-25T07:28:38.649Z,7.86
2017-11-25T07:31:06.256Z,7.87
2017-11-25T07:33:34.096Z,7.82
2017-11-25T07:36:01.774Z,7.83
2017-11-25T07:38:29.435Z,7.80
2017-11-25T07:40:57.042Z,7.88
2017-11-25T07:43:24.677Z,7.80
2017-11-25T07:45:52.279Z,7.81
2017-11-25T07:48:20.251Z,7.78
2017-11-25T07:50:47.885Z,7.83
2017-11-25T07:53:16.271Z,7.80
2017-11-25T07:55:44.191Z,7.71
2017-11-25T07:58:12.530Z,7.73
2017-11-25T08:00:40.143Z,7.77
2017-11-25T08:03:07.733Z,7.66
2017-11-25T08:05:35.349Z,7.76
2017-11-25T08:08:02.950Z,7.83
2017-11-25T08:10:30.537Z,7.78
2017-11-25T08:12:58.201Z,7.76
2017-11-25T08:15:25.794Z,7.84
2017-11-25T08:17:53.399Z,7.72
2017-11-25T08:20:21.294Z,7.68
2017-11-25T08:22:48.946Z,7.72
2017-11-25T08:25:16.596Z,7.65
2017-11-25T08:27:44.227Z,7.63
2017-11-25T08:30:11.809Z,7.69
2017-11-25T08:32:39.448Z,7.69
2017-11-25T08:35:07.065Z,7.66
2017-11-25T08:37:34.667Z,7.65
2017-11-25T08:40:02.254Z,7.56
2017-11-25T08:42:30.040Z,7.52
2017-11-25T08:44:57.700Z,7.65
2017-11-25T08:47:25.638Z,7.68
2017-11-25T08:49:53.313Z,7.69
2017-11-25T08:52:20.906Z,7.64
2017-11-25T08:54:48.519Z,7.61
2017-11-25T08:57:16.161Z,7.68
2017-11-25T08:59:43.772Z,7.70
2017-11-25T09:02:11.382Z,7.71
2017-11-25T09:04:39.021Z,7.70
2017-11-25T09:07:06.656Z,7.63
2017-11-25T09:09:34.249Z,7.54
2017-11-25T09:12:01.882Z,7.54
2017-11-25T09:14:29.490Z,7.58
2017-11-25T09:16:57.121Z,7.55
2017-11-25T09:19:24.762Z,7.56
2017-11-25T09:21:52.706Z,7.61
2017-11-25T09:24:20.313Z,7.56
2017-11-25T09:26:47.954Z,7.49
2017-11-25T09:29:15.560Z,7.48
2017-11-25T09:31:43.464Z,7.52
2017-11-25T09:34:11.428Z,7.49
2017-11-25T09:36:39.038Z,7.44
2017-11-25T09:39:06.715Z,7.51
2017-11-25T09:41:34.641Z,7.46
2017-11-25T09:44:02.319Z,7.52
2017-11-25T09:46:29.997Z,7.56
2017-11-25T09:48:57.726Z,7.52
2017-11-25T09:51:25.315Z,7.44
2017-11-25T09:53:53.481Z,7.38
2017-11-25T09:56:21.134Z,7.38
2017-11-25T09:58:48.768Z,7.41
2017-11-25T10:01:16.369Z,7.42
2017-11-25T10:03:44.003Z,7.36
2017-11-25T10:06:12.668Z,7.41
2017-11-25T10:08:40.422Z,7.40
2017-11-25T10:11:08.330Z,7.30
2017-11-25T10:13:35.934Z,7.30
2017-11-25T10:16:03.545Z,7.36
2017-11-25T10:18:31.206Z,7.31
2017-11-25T10:20:58.845Z,7.36
2017-11-25T10:23:26.444Z,7.43
2017-11-25T10:25:54.083Z,7.37
2017-11-25T10:28:21.692Z,7.29
2017-11-25T10:30:49.460Z,7.31
2017-11-25T10:33:17.610Z,7.27
2017-11-25T10:35:45.463Z,7.30
2017-11-25T10:38:13.157Z,7.25
2017-11-25T10:40:41.118Z,7.30
2017-11-25T10:43:09.529Z,7.27
2017-11-25T10:45:37.280Z,7.26
2017-11-25T10:48:05.148Z,7.23
2017-11-25T10:50:37.082Z,7.29
2017-11-25T10:53:05.561Z,7.23
2017-11-25T10:55:35.333Z,7.33
2017-11-25T10:58:05.474Z,7.32
2017-11-25T11:00:33.318Z,7.19
2017-11-25T11:03:02.781Z,7.15
2017-11-25T11:05:31.100Z,7.22
2017-11-25T11:07:59.580Z,7.21
2017-11-25T11:10:28.351Z,7.26
2017-11-25T11:12:57.350Z,7.22
2017-11-25T11:15:25.803Z,7.18
2017-11-25T11:17:54.252Z,7.12
2017-11-25T11:20:23.145Z,7.09
2017-11-25T11:22:51.632Z,7.18
2017-11-25T11:25:19.863Z,7.12
2017-11-25T11:27:48.644Z,7.01
2017-11-25T11:30:20.083Z,7.01
2017-11-25T11:32:48.155Z,6.98
2017-11-25T11:35:15.813Z,6.93
2017-11-25T11:37:44.495Z,6.90
2017-11-25T11:40:12.082Z,6.90
2017-11-25T11:42:39.877Z,6.85
2017-11-25T11:45:07.562Z,6.84
2017-11-25T11:47:35.150Z,6.77
2017-11-25T11:50:03.256Z,6.68
2017-11-25T11:52:31.027Z,6.64
2017-11-25T11:55:01.278Z,6.59
2017-11-25T11:57:30.197Z,6.58
2017-11-25T11:59:57.892Z,6.59
2017-11-25T12:02:25.475Z,6.54
2017-11-25T12:04:53.092Z,6.50
2017-11-25T12:07:20.750Z,6.43
2017-11-25T12:09:48.358Z,6.52
2017-11-25T12:12:16.070Z,6.47
2017-11-25T12:14:43.726Z,6.44
2017-11-25T12:17:11.320Z,6.46
2017-11-25T12:19:38.893Z,6.34
2017-11-25T12:22:07.642Z,6.32
2017-11-25T12:24:35.805Z,6.27
2017-11-25T12:27:04.716Z,6.23
2017-11-25T12:29:34.563Z,6.23
2017-11-25T12:32:03.519Z,6.27
2017-11-25T12:34:32.143Z,6.25
2017-11-25T12:36:59.826Z,6.20
2017-11-25T12:39:29.002Z,6.20
2017-11-25T12:41:57.193Z,6.20
2017-11-25T12:44:26.390Z,6.15
2017-11-25T12:46:54.691Z,6.16
2017-11-25T12:49:23.771Z,6.18
2017-11-25T12:51:57.017Z,6.16
2017-11-25T12:54:25.115Z,6.10
2017-11-25T12:56:56.414Z,6.04
2017-11-25T12:59:27.173Z,6.05
2017-11-25T13:01:55.090Z,6.08
2017-11-25T13:04:26.516Z,6.08
2017-11-25T13:06:55.831Z,6.05
2017-11-25T13:09:23.897Z,5.97
2017-11-25T13:11:51.617Z,5.97
2017-11-25T13:14:19.696Z,6.01
2017-11-25T13:16:47.475Z,5.95
2017-11-25T13:19:15.337Z,5.93
2017-11-25T13:21:42.961Z,5.98
2017-11-25T13:24:13.022Z,6.01
2017-11-25T13:26:41.385Z,6.06
2017-11-25T13:29:10.366Z,6.02
2017-11-25T13:31:38.762Z,5.93
2017-11-25T13:34:07.522Z,5.90
2017-11-25T13:36:35.954Z,5.88
2017-11-25T13:39:03.626Z,5.82
2017-11-25T13:41:35.047Z,5.85
2017-11-25T13:44:04.023Z,5.85
2017-11-25T13:46:32.905Z,5.89
2017-11-25T13:49:01.656Z,5.84
2017-11-25T13:51:31.710Z,5.80
2017-11-25T13:54:01.123Z,5.75
2017-11-25T13:56:29.452Z,5.80
2017-11-25T13:58:57.219Z,5.90
2017-11-25T14:01:25.072Z,5.80
2017-11-25T14:03:53.298Z,5.74
2017-11-25T14:06:20.958Z,5.70
2017-11-25T14:08:48.759Z,5.62
2017-11-25T14:11:17.214Z,5.55
2017-11-25T14:13:44.961Z,5.53
2017-11-25T14:16:12.562Z,5.54
2017-11-25T14:18:40.159Z,5.53
2017-11-25T14:21:07.781Z,5.49
2017-11-25T14:23:35.669Z,5.46
2017-11-25T14:26:03.293Z,5.46
2017-11-25T14:28:30.910Z,5.38
2017-11-25T14:30:58.524Z,5.34
2017-11-25T14:33:26.914Z,5.34
2017-11-25T14:35:55.009Z,5.34
2017-11-25T14:38:23.545Z,5.32
2017-11-25T14:40:52.060Z,5.26
2017-11-25T14:43:19.750Z,5.29
2017-11-25T14:45:50.746Z,5.25
2017-11-25T14:48:23.526Z,5.25
2017-11-25T14:50:51.390Z,5.30
2017-11-25T14:53:20.223Z,5.27
2017-11-25T14:55:51.214Z,5.26
2017-11-25T14:58:19.828Z,5.32
2017-11-25T15:00:51.834Z,5.31
2017-11-25T15:03:20.397Z,5.27
2017-11-25T15:05:48.020Z,5.31
2017-11-25T15:08:15.615Z,5.23
2017-11-25T15:10:43.249Z,5.24
2017-11-25T15:13:10.859Z,5.20
2017-11-25T15:15:38.601Z,5.16
2017-11-25T15:18:06.258Z,5.13
2017-11-25T15:20:34.397Z,5.12
2017-11-25T15:23:02.194Z,5.10
2017-11-25T15:25:30.837Z,5.14
2017-11-25T15:27:58.473Z,5.15
2017-11-25T15:30:26.067Z,5.06
2017-11-25T15:32:56.076Z,5.08
2017-11-25T15:35:23.710Z,5.13
2017-11-25T15:37:51.455Z,5.13
2017-11-25T15:40:19.077Z,5.18
2017-11-25T15:42:47.004Z,5.10
2017-11-25T15:45:14.585Z,5.15
2017-11-25T15:47:42.273Z,5.17
2017-11-25T15:50:11.851Z,5.13
2017-11-25T15:52:39.803Z,5.15
2017-11-25T15:55:08.147Z,5.24
2017-11-25T15:57:35.766Z,5.28
2017-11-25T16:00:03.380Z,5.27
2017-11-25T16:02:30.998Z,5.30
2017-11-25T16:04:58.712Z,5.30
2017-11-25T16:07:26.431Z,5.27
2017-11-25T16:09:54.069Z,5.29
2017-11-25T16:12:21.732Z,5.34
2017-11-25T16:14:50.481Z,5.27
2017-11-25T16:17:18.795Z,5.31
2017-11-25T16:19:46.453Z,5.27
2017-11-25T16:22:14.100Z,5.24
2017-11-25T16:24:42.712Z,5.19
2017-11-25T16:27:10.358Z,5.22
2017-11-25T16:29:37.960Z,5.25
2017-11-25T16:32:05.617Z,5.23
2017-11-25T16:34:33.553Z,5.27
2017-11-25T16:37:01.160Z,5.28
2017-11-25T16:39:28.811Z,5.33
2017-11-25T16:41:56.799Z,5.33
2017-11-25T16:44:24.424Z,5.34
2017-11-25T16:46:52.106Z,5.36
2017-11-25T16:49:19.835Z,5.37
2017-11-25T16:51:47.488Z,5.36
2017-11-25T16:54:18.261Z,5.32
2017-11-25T16:56:45.892Z,5.31
2017-11-25T16:59:13.574Z,5.34
2017-11-25T17:01:41.223Z,5.33
2017-11-25T17:04:08.869Z,5.36
2017-11-25T17:06:36.563Z,5.37
2017-11-25T17:09:04.222Z,5.36
2017-11-25T17:11:31.849Z,5.27
2017-11-25T17:14:00.480Z,5.28
2017-11-25T17:16:28.551Z,5.27
2017-11-25T17:18:56.172Z,5.26
2017-11-25T17:21:23.751Z,5.32
2017-11-25T17:27:43.978Z,5.39
2017-11-25T17:30:11.687Z,5.40
2017-11-25T17:33:39.940Z,5.39
2017-11-25T17:36:07.561Z,5.27
2017-11-25T17:38:37.628Z,5.22
2017-11-25T17:41:05.230Z,5.21
2017-11-25T17:43:35.271Z,5.17
2017-11-25T17:48:48.605Z,5.14
2017-11-25T17:51:16.197Z,5.12
2017-11-25T17:53:45.191Z,5.11
2017-11-25T17:56:14.102Z,5.09
2017-11-25T17:58:43.019Z,5.17
2017-11-25T18:01:13.361Z,5.10
2017-11-25T18:03:41.078Z,5.17
2017-11-25T18:06:09.047Z,5.20
2017-11-25T18:08:37.195Z,5.15
2017-11-25T18:11:04.823Z,5.04
2017-11-25T18:13:32.420Z,5.10
2017-11-25T18:16:00.083Z,5.19
2017-11-25T18:18:27.682Z,5.20
2017-11-25T18:20:55.282Z,5.16
2017-11-25T18:23:22.953Z,5.16
2017-11-25T18:25:50.552Z,5.24
2017-11-25T18:28:18.154Z,5.34
2017-11-25T18:30:46.664Z,5.33
2017-11-25T18:33:14.567Z,5.38
2017-11-25T18:35:43.153Z,5.44
2017-11-25T18:38:10.791Z,5.43
2017-11-25T18:40:38.431Z,5.40
2017-11-25T18:43:06.049Z,5.42
2017-11-25T18:45:33.698Z,5.45
2017-11-25T18:48:01.298Z,5.51
2017-11-25T18:50:32.988Z,5.48
2017-11-25T18:53:00.641Z,5.43
2017-11-25T18:55:29.468Z,5.46
2017-11-25T18:57:57.060Z,5.51
2017-11-25T19:00:25.228Z,5.46
2017-11-25T19:02:52.830Z,5.43
2017-11-25T19:05:20.777Z,5.53
2017-11-25T19:07:48.528Z,5.51
2017-11-25T19:10:16.449Z,5.55
2017-11-25T19:12:44.355Z,5.60
2017-11-25T19:15:15.196Z,5.59
2017-11-25T19:17:42.793Z,5.58
2017-11-25T19:20:10.422Z,5.63
2017-11-25T19:22:38.080Z,5.69
2017-11-25T19:25:05.661Z,5.73
2017-11-25T19:27:33.306Z,5.83
2017-11-25T19:30:03.481Z,5.77
2017-11-25T19:32:31.220Z,5.78
2017-11-25T19:34:58.862Z,5.79
2017-11-25T19:37:26.626Z,5.76
2017-11-25T19:39:54.268Z,5.69
2017-11-25T19:42:22.140Z,5.71
2017-11-25T19:44:49.918Z,5.72
2017-11-25T19:47:17.663Z,5.66
2017-11-25T19:49:45.358Z,5.62
2017-11-25T19:52:13.061Z,5.51
2017-11-25T19:54:40.658Z,5.41
2017-11-25T19:57:08.258Z,5.42
2017-11-25T19:59:35.920Z,5.46
2017-11-25T20:02:03.523Z,5.41
2017-11-25T20:04:31.113Z,5.58
2017-11-25T20:06:58.772Z,5.58
2017-11-25T20:09:26.631Z,5.56
2017-11-25T20:11:54.290Z,5.49
2017-11-25T20:14:21.934Z,5.54
2017-11-25T20:16:49.529Z,5.48
2017-11-25T20:19:17.155Z,5.41
2017-11-25T20:21:45.050Z,5.42
2017-11-25T20:24:13.544Z,5.42
2017-11-25T20:26:41.140Z,5.42
2017-11-25T20:29:08.758Z,5.40
2017-11-25T20:31:36.356Z,5.39
2017-11-25T20:34:03.945Z,5.41
2017-11-25T20:36:31.569Z,5.44
2017-11-25T20:38:59.184Z,5.48
2017-11-25T20:41:26.849Z,5.45
2017-11-25T20:43:54.864Z,5.48
2017-11-25T20:46:22.441Z,5.42
2017-11-25T20:48:50.042Z,5.41
2017-11-25T20:51:17.674Z,5.43
2017-11-25T20:53:45.260Z,5.41
2017-11-25T20:56:12.850Z,5.42
2017-11-25T20:58:40.481Z,5.26
2017-11-25T21:01:08.067Z,5.26
2017-11-25T21:03:35.666Z,5.27
2017-11-25T21:06:03.300Z,5.25
2017-11-25T21:08:30.896Z,5.27
2017-11-25T21:10:58.486Z,5.05
2017-11-25T21:13:27.009Z,4.97
2017-11-25T21:15:54.610Z,4.97
2017-11-25T21:18:22.207Z,5.01
2017-11-25T21:20:50.089Z,4.99
2017-11-25T21:23:17.694Z,4.99
2017-11-25T21:25:45.281Z,4.99
2017-11-25T21:28:12.919Z,4.87
2017-11-25T21:30:40.516Z,4.87
2017-11-25T21:33:08.143Z,4.93
2017-11-25T21:35:35.772Z,4.88
2017-11-25T21:38:03.361Z,4.81
2017-11-25T21:40:30.963Z,4.77
2017-11-25T21:42:58.603Z,4.80
2017-11-25T21:45:26.191Z,4.70
2017-11-25T21:47:54.285Z,4.70
2017-11-25T21:50:21.949Z,4.72
2017-11-25T21:52:50.531Z,4.65
2017-11-25T21:55:18.117Z,4.69
2017-11-25T21:57:45.760Z,4.67
2017-11-25T22:00:13.624Z,4.69
2017-11-25T22:02:41.486Z,4.65
2017-11-25T22:05:09.539Z,4.61
2017-11-25T22:07:37.139Z,4.53
2017-11-25T22:10:04.713Z,4.54
2017-11-25T22:12:32.347Z,4.55
2017-11-25T22:15:00.210Z,4.41
2017-11-25T22:17:27.819Z,4.40
2017-11-25T22:19:55.545Z,4.42
2017-11-25T22:22:23.130Z,4.43
2017-11-25T22:24:50.717Z,4.41
2017-11-25T22:27:18.390Z,4.38
2017-11-25T22:29:45.992Z,4.41
2017-11-25T22:32:13.859Z,4.38
2017-11-25T22:34:41.484Z,4.44
2017-11-25T22:37:09.082Z,4.41
2017-11-25T22:39:36.673Z,4.43
2017-11-25T22:42:04.342Z,4.38
2017-11-25T22:44:31.981Z,4.34
2017-11-25T22:46:59.582Z,4.29
2017-11-25T22:49:27.221Z,4.36
2017-11-25T22:51:54.814Z,4.30
2017-11-25T22:54:22.418Z,4.23
2017-11-25T22:56:50.088Z,4.18
2017-11-25T22:59:17.698Z,4.19
2017-11-25T23:01:45.301Z,4.21
2017-11-25T23:04:12.955Z,4.23
2017-11-25T23:06:40.540Z,4.26
2017-11-25T23:09:08.118Z,4.25
2017-11-25T23:11:35.749Z,4.23
2017-11-25T23:14:03.614Z,4.09
2017-11-25T23:16:31.214Z,4.14
2017-11-25T23:18:58.852Z,4.19
2017-11-25T23:21:26.447Z,4.17
2017-11-25T23:23:54.532Z,4.10
2017-11-25T23:26:22.158Z,4.15
2017-11-25T23:28:49.750Z,4.06
2017-11-25T23:31:17.766Z,4.09
2017-11-25T23:33:45.399Z,4.11
2017-11-25T23:36:12.984Z,4.12
2017-11-25T23:38:40.577Z,4.20
2017-11-25T23:41:08.202Z,4.32
2017-11-25T23:43:35.786Z,4.28
2017-11-25T23:46:03.655Z,4.30
2017-11-25T23:48:31.290Z,4.32
2017-11-25T23:50:59.180Z,4.31
2017-11-25T23:53:27.047Z,4.30
2017-11-25T23:55:54.690Z,4.27
2017-11-25T23:58:22.296Z,4.16
